Velkommen til

Stord Flyklubb

Om oss

Historien til Stord Flyklubb

Klubbens aner strekker seg tilbake til 1969 med sjøfly. Siden har vi sett vanlige motorfly og glidefly, men det er sportsfly som er hovedfokuset i dag

En kilometer vei vil ta deg en kilometer

En kilometer rullebane vil ta deg hvor enn du vil

Bli pilot

Alle kan lære å fly!

Ta en prøvetur hos oss og se hvor moro det er! Prøveturen gir deg en mulighet til å se om dette er noe du har lyst til å gå videre med.

Teorien tas av de fleste som hjemmeundervisning. Nytt læremateriell gjør opplæringen både enklere og mer strømlinjeformet.

Praksis kan påbegynnes mens man tar teorien, men teorien må være bestått før man kan fly solo. 

METAR Haugesund
ENHD 262050Z AUTO 15018G28KT 4100 -RA BKN005/// BKN011/// OVC014/// 09/08 Q1002 ENHD 262020Z AUTO 15021G33KT 3700 -RA VV019 09/08 Q1002 ENHD 261950Z 15018KT 9999 -RA BKN018 10/08 Q1003 ENHD 261920Z 16015KT 140V200 9999 -RA FEW016 BKN037 10/08 Q1003 ENHD 261850Z 17015KT 9999 -RA SCT037 10/08 Q1004 ENHD 261820Z 19016KT 9999 -SHRA SCT013 BKN037 10/08 Q1004 TAF ENHD 261400Z 2615/2620 18015KT 9999 -SHRA SCT015 BKN025 BECMG 2618/2620 16022G32KT 4000 RA BR BKN009
METAR Flesland
ENBR 262050Z 15015KT 9999 -RA FEW009 SCT014 BKN022 09/08 Q1000 RMK WIND 1200FT 14032G47KT ENBR 262020Z 16017KT 9999 -RA FEW007 SCT009 BKN013 09/08 Q1001 RMK WIND 1200FT 14028KT ENBR 261950Z 18020KT 8000 -RA FEW008 SCT010 BKN015 09/08 Q1002 RMK WIND 1200FT 16027G39KT ENBR 261920Z 15014KT 7000 -RA FEW008 BKN014 09/08 Q1002 BECMG 16020G30KT 4000 RA BKN008 RMK WIND 1200FT 15025KT ENBR 261850Z 15014KT 9999 -RA FEW008 SCT015 BKN020 09/08 Q1003 BECMG 16020G30KT BKN012 RMK WIND 1200FT 15022KT ENBR 261820Z 15013KT 9999 -RA FEW010 SCT015TCU BKN020 09/08 Q1003 BECMG 16015G25KT BKN012 RMK WIND 1200FT 15021KT TAF AMD ENBR 2620/2718 15015KT 8000 -RA SCT008 BKN015 TEMPO 2620/2703 16020G30KT 3000 RA BR BKN006 BECMG 2702/2704 25012KT BECMG 2710/2712 19012KT